createdAt,value
2022-12-01T00:00:20.991Z,14.57
2022-12-01T00:10:28.686Z,12.47
2022-12-01T00:20:33.500Z,10.93
2022-12-01T00:30:37.918Z,14.63
2022-12-01T00:40:40.963Z,11.53
2022-12-01T00:50:45.770Z,11.70
2022-12-01T01:00:49.204Z,12.03
2022-12-01T01:10:53.630Z,11.47
2022-12-01T01:20:58.257Z,12.80
2022-12-01T01:31:06.442Z,11.80
2022-12-01T01:41:09.801Z,12.17
2022-12-01T01:51:15.556Z,10.77
2022-12-01T02:01:18.719Z,10.57
2022-12-01T02:11:48.509Z,12.07
2022-12-01T02:22:05.574Z,11.47
2022-12-01T02:32:18.093Z,11.77
2022-12-01T02:42:39.081Z,12.30
2022-12-01T02:52:44.381Z,11.97
2022-12-01T03:03:00.401Z,13.33
2022-12-01T03:13:15.204Z,13.07
2022-12-01T03:23:23.217Z,12.63
2022-12-01T03:33:33.008Z,12.03
2022-12-01T03:43:42.142Z,11.57
2022-12-01T03:53:53.968Z,13.30
2022-12-01T04:03:57.032Z,14.43
2022-12-01T04:14:01.448Z,13.13
2022-12-01T04:24:05.099Z,13.47
2022-12-01T04:34:11.809Z,13.73
2022-12-01T04:44:14.950Z,13.27
2022-12-01T04:54:19.657Z,15.00
2022-12-01T05:04:22.759Z,15.70
2022-12-01T05:14:27.370Z,15.07
2022-12-01T05:24:30.467Z,15.33
2022-12-01T05:34:35.074Z,14.37
2022-12-01T05:44:38.073Z,15.53
2022-12-01T05:54:42.569Z,16.60
2022-12-01T06:04:45.586Z,16.03
2022-12-01T06:14:50.012Z,18.00
2022-12-01T06:24:53.175Z,16.10
2022-12-01T06:34:57.603Z,15.73
2022-12-01T06:45:00.625Z,15.60
2022-12-01T06:55:05.526Z,16.73
2022-12-01T07:05:09.621Z,18.80
2022-12-01T07:15:14.187Z,16.70
2022-12-01T07:25:17.297Z,17.17
2022-12-01T07:35:21.647Z,17.40
2022-12-01T07:45:24.644Z,19.13
2022-12-01T07:55:29.087Z,21.30
2022-12-01T08:05:32.133Z,17.00
2022-12-01T08:15:36.998Z,17.17
2022-12-01T08:25:40.081Z,19.23
2022-12-01T08:35:44.529Z,20.40
2022-12-01T08:45:47.564Z,21.07
2022-12-01T08:55:51.915Z,21.33
2022-12-01T09:05:54.925Z,21.77
2022-12-01T09:16:01.073Z,19.80
2022-12-01T09:26:04.323Z,22.77
2022-12-01T09:36:10.331Z,23.00
2022-12-01T09:46:17.092Z,20.57
2022-12-01T09:56:25.292Z,20.23
2022-12-01T10:06:34.840Z,20.77
2022-12-01T10:16:47.234Z,20.47
2022-12-01T10:26:56.582Z,21.53
2022-12-01T10:37:01.055Z,17.83
2022-12-01T10:47:05.166Z,21.33
2022-12-01T10:57:17.468Z,20.83
2022-12-01T11:07:24.722Z,20.13
2022-12-01T11:17:33.169Z,20.73
2022-12-01T11:27:47.566Z,21.77
2022-12-01T11:38:27.876Z,21.20
2022-12-01T11:48:25.919Z,21.70
2022-12-01T11:58:30.422Z,24.23
2022-12-01T12:08:44.513Z,23.23
2022-12-01T12:19:06.452Z,23.70
2022-12-01T12:29:23.715Z,24.10
2022-12-01T12:39:50.268Z,21.07
2022-12-01T12:50:01.979Z,21.50
2022-12-01T13:00:10.170Z,19.20
2022-12-01T13:10:23.906Z,19.00
2022-12-01T13:20:30.162Z,18.50
2022-12-01T13:30:33.240Z,19.13
2022-12-01T13:40:38.312Z,20.57
2022-12-01T13:51:03.127Z,17.27
2022-12-01T14:01:39.284Z,16.90
2022-12-01T14:11:55.376Z,15.83
2022-12-01T14:21:58.609Z,17.20
2022-12-01T14:32:22.681Z,19.40
2022-12-01T14:42:49.479Z,17.47
2022-12-01T14:52:56.905Z,17.90
2022-12-01T15:03:03.119Z,18.40
2022-12-01T15:13:21.514Z,19.00
2022-12-01T15:23:24.569Z,21.33
2022-12-01T15:33:36.974Z,19.07
2022-12-01T15:43:41.408Z,18.80
2022-12-01T15:53:53.685Z,20.20
2022-12-01T16:03:59.482Z,20.20
2022-12-01T16:14:08.171Z,30.33
2022-12-01T16:24:16.240Z,23.40
2022-12-01T16:34:44.553Z,22.10
2022-12-01T16:44:46.920Z,22.93
2022-12-01T16:54:51.532Z,23.90
2022-12-01T17:04:54.771Z,25.67
2022-12-01T17:15:00.252Z,19.70
2022-12-01T17:25:03.357Z,20.27
2022-12-01T17:35:08.788Z,19.67
2022-12-01T17:45:12.196Z,21.97
2022-12-01T17:55:16.794Z,18.80
2022-12-01T18:05:20.000Z,21.77
2022-12-01T18:15:29.220Z,21.10
2022-12-01T18:25:35.555Z,20.20
2022-12-01T18:35:44.645Z,21.50
2022-12-01T18:45:47.739Z,18.47
2022-12-01T18:55:52.077Z,20.80
2022-12-01T19:05:55.153Z,22.40
2022-12-01T19:15:59.765Z,24.87
2022-12-01T19:26:06.048Z,20.33
2022-12-01T19:36:12.524Z,20.87
2022-12-01T19:46:18.708Z,22.57
2022-12-01T19:56:24.052Z,23.30
2022-12-01T20:06:28.655Z,23.40
2022-12-01T20:16:33.200Z,22.67
2022-12-01T20:26:38.779Z,22.97
2022-12-01T20:36:43.537Z,21.43
2022-12-01T20:46:47.557Z,25.60
2022-12-01T20:56:52.006Z,24.00
2022-12-01T21:06:57.085Z,23.90
2022-12-01T21:17:10.929Z,23.10
2022-12-01T21:27:15.563Z,22.03
2022-12-01T21:37:23.481Z,23.80
2022-12-01T21:47:28.571Z,21.23
2022-12-01T21:57:42.744Z,21.47
2022-12-01T22:07:46.285Z,23.20
2022-12-01T22:17:50.750Z,23.30
2022-12-01T22:27:54.531Z,21.90
2022-12-01T22:38:13.867Z,23.63
2022-12-01T22:48:34.583Z,23.47
2022-12-01T22:58:41.983Z,21.47
2022-12-01T23:08:45.045Z,22.43
2022-12-01T23:18:49.480Z,23.50
2022-12-01T23:28:52.499Z,21.37
2022-12-01T23:38:59.107Z,20.53
2022-12-01T23:49:11.227Z,22.03
2022-12-01T23:59:15.795Z,22.77
